Time;durP1;ratioP1;P1;durP2;ratioP2;P2;SDS_P1;SDS_P2;PMS_P1;PMS_P2;Temp;Humidity;BMP_temperature;BMP_pressure;BME280_temperature;BME280_humidity;BME280_pressure;Samples;Min_cycle;Max_cycle;Signal;HPM_P1;HPM_P2
2023/09/10 00:01:15;;;;;;;23.02;19.70;;;;;;;;;;5049497;28;20029;-59
2023/09/10 00:03:40;;;;;;;25.83;20.52;;;;;;;;;;5052534;28;20436;-59
2023/09/10 00:06:06;;;;;;;23.30;19.60;;;;;;;;;;5036567;28;20034;-60
2023/09/10 00:08:32;;;;;;;23.67;20.42;;;;;;;;;;5038610;28;20155;-59
2023/09/10 00:10:58;;;;;;;24.73;19.98;;;;;;;;;;5037780;28;20045;-59
2023/09/10 00:13:24;;;;;;;23.48;20.00;;;;;;;;;;5050404;28;20029;-60
2023/09/10 00:15:53;;;;;;;24.55;20.45;;;;;;;;;;5048151;28;20401;-59
2023/09/10 00:18:19;;;;;;;24.50;21.02;;;;;;;;;;5053256;28;20059;-59
2023/09/10 00:20:45;;;;;;;24.13;20.20;;;;;;;;;;5050584;28;20115;-59
2023/09/10 00:23:11;;;;;;;24.05;20.85;;;;;;;;;;5050703;28;20461;-59
2023/09/10 00:25:36;;;;;;;24.75;20.40;;;;;;;;;;5041673;28;21559;-59
2023/09/10 00:28:02;;;;;;;24.27;20.17;;;;;;;;;;5051953;28;20440;-59
2023/09/10 00:30:28;;;;;;;26.02;20.80;;;;;;;;;;5047657;28;20033;-59
2023/09/10 00:32:54;;;;;;;28.08;21.73;;;;;;;;;;5037285;28;20524;-58
2023/09/10 00:35:19;;;;;;;25.50;20.35;;;;;;;;;;5051602;28;20032;-59
2023/09/10 00:37:45;;;;;;;24.63;19.88;;;;;;;;;;5036626;28;20038;-59
2023/09/10 00:40:10;;;;;;;23.20;19.70;;;;;;;;;;5051238;28;20040;-59
2023/09/10 00:42:37;;;;;;;25.63;20.75;;;;;;;;;;5051572;28;20423;-59
2023/09/10 00:45:12;;;;;;;21.98;19.33;;;;;;;;;;5047853;28;20036;-59
2023/09/10 00:47:41;;;;;;;22.60;19.88;;;;;;;;;;5046347;28;20108;-59
2023/09/10 00:50:09;;;;;;;22.52;20.05;;;;;;;;;;5041130;28;20035;-59
2023/09/10 00:52:36;;;;;;;23.85;20.40;;;;;;;;;;5049514;28;20389;-59
2023/09/10 00:55:02;;;;;;;24.45;20.45;;;;;;;;;;5050016;28;20031;-59
2023/09/10 00:57:28;;;;;;;27.05;21.52;;;;;;;;;;5052286;28;20422;-59
2023/09/10 00:59:53;;;;;;;30.02;25.00;;;;;;;;;;5047953;28;20108;-59
2023/09/10 01:02:20;;;;;;;26.80;23.52;;;;;;;;;;5048656;28;20037;-59
2023/09/10 01:04:45;;;;;;;26.27;22.25;;;;;;;;;;5046413;28;20032;-59
2023/09/10 01:07:25;;;;;;;29.55;24.17;;;;;;;;;;5043551;28;20458;-59
2023/09/10 01:09:51;;;;;;;30.08;24.10;;;;;;;;;;5033283;28;20036;-60
2023/09/10 01:12:37;;;;;;;30.85;25.25;;;;;;;;;;5051450;28;20033;-59
2023/09/10 01:15:11;;;;;;;27.15;23.15;;;;;;;;;;5046246;28;20097;-59
2023/09/10 01:17:45;;;;;;;27.83;24.23;;;;;;;;;;5052027;28;20037;-59
2023/09/10 01:20:23;;;;;;;30.50;24.30;;;;;;;;;;5040048;28;20029;-59
2023/09/10 01:23:03;;;;;;;32.30;25.20;;;;;;;;;;5050564;28;20509;-59
2023/09/10 01:25:32;;;;;;;34.72;25.17;;;;;;;;;;5049680;28;20155;-59
2023/09/10 01:28:04;;;;;;;33.50;25.90;;;;;;;;;;5045127;28;20071;-59
2023/09/10 01:30:32;;;;;;;31.73;24.48;;;;;;;;;;5051428;28;20044;-60
2023/09/10 01:33:29;;;;;;;32.47;26.15;;;;;;;;;;5048808;28;20037;-59
2023/09/10 01:36:07;;;;;;;35.30;26.55;;;;;;;;;;5042239;28;20048;-61
2023/09/10 01:38:55;;;;;;;31.90;25.88;;;;;;;;;;5050953;28;20037;-59
2023/09/10 01:41:22;;;;;;;33.90;26.73;;;;;;;;;;5042755;28;20036;-59
2023/09/10 01:43:49;;;;;;;33.70;26.40;;;;;;;;;;5031326;28;20037;-59
2023/09/10 01:46:15;;;;;;;34.63;28.98;;;;;;;;;;5049171;28;20063;-60
2023/09/10 01:48:41;;;;;;;37.28;30.27;;;;;;;;;;5044669;28;20060;-59
2023/09/10 01:51:07;;;;;;;41.72;32.97;;;;;;;;;;5030523;28;20119;-59
2023/09/10 01:53:32;;;;;;;40.88;31.48;;;;;;;;;;5040928;28;20025;-59
2023/09/10 01:55:57;;;;;;;36.58;28.95;;;;;;;;;;5049701;28;20039;-59
2023/09/10 01:58:23;;;;;;;33.25;26.40;;;;;;;;;;5051166;28;20035;-59
2023/09/10 02:00:51;;;;;;;30.27;24.42;;;;;;;;;;5048224;28;20037;-59
2023/09/10 02:03:17;;;;;;;30.30;23.30;;;;;;;;;;5050275;28;20029;-59
2023/09/10 02:05:43;;;;;;;29.90;25.27;;;;;;;;;;5035504;28;20037;-59
2023/09/10 02:08:08;;;;;;;35.28;27.63;;;;;;;;;;5049984;28;20382;-59
2023/09/10 02:10:35;;;;;;;31.90;26.98;;;;;;;;;;5049871;28;20052;-59
2023/09/10 02:13:01;;;;;;;32.50;25.45;;;;;;;;;;5042374;28;20041;-59
2023/09/10 02:15:26;;;;;;;30.33;25.10;;;;;;;;;;5049138;28;20082;-59
2023/09/10 02:17:56;;;;;;;31.35;25.90;;;;;;;;;;5049708;28;20033;-59
2023/09/10 02:20:21;;;;;;;29.05;24.90;;;;;;;;;;5039428;28;20041;-60
2023/09/10 02:22:47;;;;;;;37.35;30.13;;;;;;;;;;5048007;28;20120;-60
2023/09/10 02:25:12;;;;;;;40.72;32.10;;;;;;;;;;5034346;28;20580;-59
2023/09/10 02:27:38;;;;;;;34.95;28.40;;;;;;;;;;5045706;28;20093;-60
2023/09/10 02:30:04;;;;;;;33.05;25.90;;;;;;;;;;5053082;28;20040;-60
2023/09/10 02:32:31;;;;;;;33.05;24.95;;;;;;;;;;5050591;28;20056;-59
2023/09/10 02:34:57;;;;;;;34.08;27.00;;;;;;;;;;5035533;28;20489;-59
2023/09/10 02:37:22;;;;;;;29.20;24.45;;;;;;;;;;5050615;28;20037;-59
2023/09/10 02:39:48;;;;;;;28.27;23.35;;;;;;;;;;5054280;28;20060;-59
2023/09/10 02:42:13;;;;;;;31.77;24.65;;;;;;;;;;5049089;28;20040;-59
2023/09/10 02:44:39;;;;;;;33.65;25.80;;;;;;;;;;5051017;28;20029;-59
2023/09/10 02:47:04;;;;;;;32.03;24.95;;;;;;;;;;5053021;28;20032;-59
2023/09/10 02:49:30;;;;;;;30.45;25.70;;;;;;;;;;5053529;28;20029;-59
2023/09/10 02:51:55;;;;;;;30.20;24.83;;;;;;;;;;5051474;28;20029;-59
2023/09/10 02:54:21;;;;;;;29.27;23.23;;;;;;;;;;5052608;28;20112;-59
2023/09/10 02:56:46;;;;;;;29.90;25.02;;;;;;;;;;5052643;28;20108;-59
2023/09/10 02:59:23;;;;;;;31.73;24.13;;;;;;;;;;5041048;28;20082;-60
2023/09/10 03:01:48;;;;;;;29.92;24.98;;;;;;;;;;5051395;28;20532;-59
2023/09/10 03:04:14;;;;;;;29.98;24.50;;;;;;;;;;5036989;28;20164;-60
2023/09/10 03:06:44;;;;;;;31.23;25.17;;;;;;;;;;5037448;28;20029;-59
2023/09/10 03:09:11;;;;;;;35.80;28.27;;;;;;;;;;5033699;28;20489;-59
2023/09/10 03:11:38;;;;;;;35.90;28.85;;;;;;;;;;5034616;28;20186;-59
2023/09/10 03:14:04;;;;;;;40.60;31.58;;;;;;;;;;5033153;28;20025;-59
2023/09/10 03:16:29;;;;;;;38.97;30.50;;;;;;;;;;5051108;28;20060;-59
2023/09/10 03:18:55;;;;;;;43.15;32.28;;;;;;;;;;5049504;28;20087;-59
2023/09/10 03:21:21;;;;;;;40.88;32.25;;;;;;;;;;5033460;28;20029;-59
2023/09/10 03:23:47;;;;;;;46.20;35.30;;;;;;;;;;5051073;28;20029;-59
2023/09/10 03:26:12;;;;;;;46.67;35.55;;;;;;;;;;5052519;28;20032;-60
2023/09/10 03:28:37;;;;;;;44.25;34.90;;;;;;;;;;5042632;28;20033;-59
2023/09/10 03:31:03;;;;;;;47.75;36.35;;;;;;;;;;5052491;28;20029;-59
2023/09/10 03:33:29;;;;;;;46.10;35.40;;;;;;;;;;5053789;28;20029;-59
2023/09/10 03:35:54;;;;;;;48.40;35.60;;;;;;;;;;5048342;28;20040;-59
2023/09/10 03:38:19;;;;;;;45.63;35.42;;;;;;;;;;5052762;28;20373;-59
2023/09/10 03:40:45;;;;;;;48.05;35.00;;;;;;;;;;5052747;28;20079;-59
2023/09/10 03:43:10;;;;;;;48.67;36.13;;;;;;;;;;5052370;28;20401;-59
2023/09/10 03:45:35;;;;;;;42.25;33.53;;;;;;;;;;5051015;28;20116;-59
2023/09/10 03:48:01;;;;;;;48.78;36.67;;;;;;;;;;5050327;28;20025;-58
2023/09/10 03:50:26;;;;;;;47.42;35.17;;;;;;;;;;5050570;28;20054;-59
2023/09/10 03:52:52;;;;;;;43.88;33.22;;;;;;;;;;5039938;28;20484;-59
2023/09/10 03:55:20;;;;;;;44.78;33.47;;;;;;;;;;5050380;28;20113;-58
2023/09/10 03:57:45;;;;;;;44.70;34.67;;;;;;;;;;5049206;28;20802;-58
2023/09/10 04:00:11;;;;;;;45.30;34.50;;;;;;;;;;5052215;28;20099;-58
2023/09/10 04:02:36;;;;;;;47.40;35.38;;;;;;;;;;5050747;28;20037;-59
2023/09/10 04:05:02;;;;;;;43.13;33.65;;;;;;;;;;5041265;28;20044;-59
2023/09/10 04:07:28;;;;;;;42.90;33.63;;;;;;;;;;5033474;28;20045;-58
2023/09/10 04:09:53;;;;;;;45.17;34.28;;;;;;;;;;5041848;28;20029;-59
2023/09/10 04:12:18;;;;;;;45.53;34.25;;;;;;;;;;5048555;28;20044;-59
2023/09/10 04:14:44;;;;;;;45.38;33.45;;;;;;;;;;5052626;28;20032;-60
2023/09/10 04:17:09;;;;;;;44.42;32.58;;;;;;;;;;5047037;28;20513;-59
2023/09/10 04:19:35;;;;;;;38.47;29.98;;;;;;;;;;5045562;28;20041;-59
2023/09/10 04:22:00;;;;;;;39.47;30.58;;;;;;;;;;5032526;28;20029;-60
2023/09/10 04:24:25;;;;;;;37.72;30.08;;;;;;;;;;5042564;28;20039;-59
2023/09/10 04:26:51;;;;;;;36.22;28.88;;;;;;;;;;5050448;28;20115;-59
2023/09/10 04:29:16;;;;;;;36.10;29.55;;;;;;;;;;5047917;28;20524;-59
2023/09/10 04:31:45;;;;;;;36.95;29.70;;;;;;;;;;5036663;28;20107;-59
2023/09/10 04:34:10;;;;;;;34.92;28.10;;;;;;;;;;5051413;28;20493;-59
2023/09/10 04:36:35;;;;;;;35.53;28.92;;;;;;;;;;5039621;28;20072;-58
2023/09/10 04:39:07;;;;;;;37.17;29.30;;;;;;;;;;5048762;28;20052;-59
2023/09/10 04:41:33;;;;;;;38.85;30.08;;;;;;;;;;5041956;28;20398;-58
2023/09/10 04:43:58;;;;;;;38.83;31.40;;;;;;;;;;5032553;28;20044;-59
2023/09/10 04:46:24;;;;;;;38.78;31.17;;;;;;;;;;5038744;28;20032;-59
2023/09/10 04:48:50;;;;;;;41.97;32.28;;;;;;;;;;5040146;28;20548;-59
2023/09/10 04:51:15;;;;;;;39.20;31.67;;;;;;;;;;5047671;28;20033;-60
2023/09/10 04:53:42;;;;;;;39.72;31.50;;;;;;;;;;5052701;28;20453;-60
2023/09/10 04:56:07;;;;;;;39.97;32.28;;;;;;;;;;5040012;28;20068;-59
2023/09/10 04:58:33;;;;;;;40.75;32.15;;;;;;;;;;5052462;28;20492;-59
2023/09/10 05:00:58;;;;;;;39.47;31.23;;;;;;;;;;5049240;28;20028;-58
2023/09/10 05:03:24;;;;;;;39.60;30.42;;;;;;;;;;5047903;28;20504;-59
2023/09/10 05:05:59;;;;;;;40.58;31.35;;;;;;;;;;5036974;28;20037;-59
2023/09/10 05:08:25;;;;;;;41.50;32.35;;;;;;;;;;5048708;28;20428;-59
2023/09/10 05:10:51;;;;;;;37.40;30.95;;;;;;;;;;5038667;28;20107;-60
2023/09/10 05:13:16;;;;;;;36.85;29.27;;;;;;;;;;5047391;28;20107;-60
2023/09/10 05:15:44;;;;;;;38.78;31.52;;;;;;;;;;5051494;28;20134;-60
2023/09/10 05:18:09;;;;;;;41.70;30.58;;;;;;;;;;5032719;28;20084;-59
2023/09/10 05:20:35;;;;;;;37.50;29.60;;;;;;;;;;5039981;28;20360;-59
2023/09/10 05:23:00;;;;;;;37.00;29.10;;;;;;;;;;5032164;28;20033;-59
2023/09/10 05:25:25;;;;;;;36.47;29.55;;;;;;;;;;5030231;28;20029;-60
2023/09/10 05:27:51;;;;;;;37.30;30.08;;;;;;;;;;5032252;28;20426;-59
2023/09/10 05:30:16;;;;;;;39.67;29.73;;;;;;;;;;5047140;28;20064;-59
2023/09/10 05:32:41;;;;;;;36.83;29.23;;;;;;;;;;5051794;28;20052;-59
2023/09/10 05:35:08;;;;;;;37.00;29.02;;;;;;;;;;5031260;28;20037;-60
2023/09/10 05:37:33;;;;;;;36.70;29.50;;;;;;;;;;5032382;28;20378;-59
2023/09/10 05:39:58;;;;;;;36.03;28.27;;;;;;;;;;5031782;28;20026;-59
2023/09/10 05:42:24;;;;;;;37.88;29.88;;;;;;;;;;5029814;28;20044;-60
2023/09/10 05:44:52;;;;;;;38.13;29.88;;;;;;;;;;5031943;28;20048;-60
2023/09/10 05:47:19;;;;;;;33.78;27.63;;;;;;;;;;5045914;28;20440;-60
2023/09/10 05:49:47;;;;;;;35.22;26.95;;;;;;;;;;5038146;28;20105;-59
2023/09/10 05:52:12;;;;;;;34.17;27.20;;;;;;;;;;5034242;28;20033;-59
2023/09/10 05:54:38;;;;;;;33.13;26.33;;;;;;;;;;5051546;28;20389;-58
2023/09/10 05:57:03;;;;;;;32.92;25.77;;;;;;;;;;5038009;28;20470;-58
2023/09/10 05:59:29;;;;;;;31.85;25.30;;;;;;;;;;5050723;28;20047;-59
2023/09/10 06:01:54;;;;;;;31.95;25.98;;;;;;;;;;5051563;28;20386;-59
2023/09/10 06:04:19;;;;;;;31.77;25.80;;;;;;;;;;5049539;28;20037;-60
2023/09/10 06:06:45;;;;;;;31.33;24.92;;;;;;;;;;5051056;28;20057;-59
2023/09/10 06:09:10;;;;;;;30.42;24.60;;;;;;;;;;5050323;28;20032;-59
2023/09/10 06:11:36;;;;;;;30.17;25.05;;;;;;;;;;5051511;28;20029;-59
2023/09/10 06:14:01;;;;;;;30.50;23.92;;;;;;;;;;5051555;28;20067;-60
2023/09/10 06:16:26;;;;;;;31.52;24.55;;;;;;;;;;5047613;28;20055;-60
2023/09/10 06:18:52;;;;;;;30.05;24.88;;;;;;;;;;5051381;28;20052;-60
2023/09/10 06:21:17;;;;;;;29.10;24.45;;;;;;;;;;5034740;28;20036;-59
2023/09/10 06:23:44;;;;;;;27.08;23.70;;;;;;;;;;5031567;28;20482;-59
2023/09/10 06:26:10;;;;;;;28.10;23.63;;;;;;;;;;5042593;28;20086;-60
2023/09/10 06:28:35;;;;;;;28.15;24.58;;;;;;;;;;5047908;28;20029;-59
2023/09/10 06:31:01;;;;;;;31.67;24.08;;;;;;;;;;5051151;28;20088;-60
2023/09/10 06:33:26;;;;;;;29.85;23.65;;;;;;;;;;5049264;28;20634;-60
2023/09/10 06:35:52;;;;;;;33.83;24.70;;;;;;;;;;5051371;28;20154;-60
2023/09/10 06:38:17;;;;;;;30.08;23.90;;;;;;;;;;5049029;28;20025;-60
2023/09/10 06:40:43;;;;;;;29.17;23.52;;;;;;;;;;5050920;28;20032;-60
2023/09/10 06:43:09;;;;;;;26.98;22.55;;;;;;;;;;5048413;28;20459;-60
2023/09/10 06:45:35;;;;;;;27.55;23.20;;;;;;;;;;5049650;28;20040;-60
2023/09/10 06:48:00;;;;;;;27.60;22.10;;;;;;;;;;5050514;28;20037;-59
2023/09/10 06:50:26;;;;;;;26.00;22.40;;;;;;;;;;5050279;28;20025;-60
2023/09/10 06:52:51;;;;;;;26.63;22.42;;;;;;;;;;5051178;28;20539;-59
2023/09/10 06:55:16;;;;;;;27.85;23.25;;;;;;;;;;5050340;28;20035;-60
2023/09/10 06:57:42;;;;;;;27.65;23.42;;;;;;;;;;5038848;28;20398;-60
2023/09/10 07:00:08;;;;;;;29.35;23.90;;;;;;;;;;5050641;28;20029;-60
2023/09/10 07:02:34;;;;;;;26.67;22.52;;;;;;;;;;5050940;28;20029;-60
2023/09/10 07:04:59;;;;;;;27.98;22.92;;;;;;;;;;5048871;28;20032;-60
2023/09/10 07:07:24;;;;;;;27.40;22.98;;;;;;;;;;5054035;28;20446;-60
2023/09/10 07:09:50;;;;;;;28.33;22.63;;;;;;;;;;5054577;28;20151;-60
2023/09/10 07:12:15;;;;;;;25.63;21.67;;;;;;;;;;5053551;28;20040;-60
2023/09/10 07:14:42;;;;;;;26.90;22.63;;;;;;;;;;5052408;28;20041;-59
2023/09/10 07:17:08;;;;;;;25.75;21.30;;;;;;;;;;5054211;28;20057;-60
2023/09/10 07:19:33;;;;;;;26.60;21.17;;;;;;;;;;5053786;28;20044;-60
2023/09/10 07:21:59;;;;;;;26.77;21.95;;;;;;;;;;5052373;28;20029;-59
2023/09/10 07:24:24;;;;;;;29.67;22.17;;;;;;;;;;5052532;28;20521;-60
2023/09/10 07:26:50;;;;;;;26.88;21.40;;;;;;;;;;5053507;28;20102;-60
2023/09/10 07:29:16;;;;;;;26.85;21.38;;;;;;;;;;5053087;28;20029;-60
2023/09/10 07:31:42;;;;;;;25.70;21.33;;;;;;;;;;5054264;28;20029;-60
2023/09/10 07:34:07;;;;;;;26.42;20.52;;;;;;;;;;5053998;28;20029;-60
2023/09/10 07:36:33;;;;;;;23.10;20.25;;;;;;;;;;5053094;28;20041;-60
2023/09/10 07:38:59;;;;;;;22.52;20.05;;;;;;;;;;5053285;28;20430;-60
2023/09/10 07:41:24;;;;;;;24.17;18.88;;;;;;;;;;5037949;28;20068;-60
2023/09/10 07:43:50;;;;;;;21.17;18.27;;;;;;;;;;5042484;28;20059;-60
2023/09/10 07:46:15;;;;;;;21.70;19.40;;;;;;;;;;5052787;28;20029;-60
2023/09/10 07:48:41;;;;;;;25.15;20.48;;;;;;;;;;5054024;28;20025;-60
2023/09/10 07:51:06;;;;;;;22.35;19.13;;;;;;;;;;5053461;28;20087;-60
2023/09/10 07:53:32;;;;;;;24.90;20.48;;;;;;;;;;5052086;28;20049;-60
2023/09/10 07:55:57;;;;;;;24.33;19.45;;;;;;;;;;5053359;28;20033;-60
2023/09/10 07:58:23;;;;;;;22.40;19.52;;;;;;;;;;5042589;28;20087;-60
2023/09/10 08:00:52;;;;;;;21.98;18.80;;;;;;;;;;5049264;28;20035;-60
2023/09/10 08:03:17;;;;;;;26.15;18.42;;;;;;;;;;5051931;28;20041;-60
2023/09/10 08:05:42;;;;;;;20.20;17.67;;;;;;;;;;5032800;28;20111;-60
2023/09/10 08:08:08;;;;;;;23.77;19.02;;;;;;;;;;5041372;28;20104;-59
2023/09/10 08:10:34;;;;;;;25.05;18.90;;;;;;;;;;5052342;28;20604;-60
2023/09/10 08:13:00;;;;;;;22.80;17.25;;;;;;;;;;5052483;28;20064;-60
2023/09/10 08:15:26;;;;;;;22.35;17.88;;;;;;;;;;5034270;28;20041;-60
2023/09/10 08:17:54;;;;;;;22.70;18.95;;;;;;;;;;5032378;28;20037;-60
2023/09/10 08:20:20;;;;;;;22.17;18.58;;;;;;;;;;5038780;28;20425;-60
2023/09/10 08:22:46;;;;;;;18.58;15.88;;;;;;;;;;5042578;28;20044;-60
2023/09/10 08:25:11;;;;;;;20.05;17.80;;;;;;;;;;5051303;28;20032;-60
2023/09/10 08:27:36;;;;;;;22.52;17.48;;;;;;;;;;5047375;28;20359;-60
2023/09/10 08:30:06;;;;;;;20.25;17.13;;;;;;;;;;5033028;28;20083;-60
2023/09/10 08:32:32;;;;;;;21.63;17.90;;;;;;;;;;5032295;28;20033;-60
2023/09/10 08:34:58;;;;;;;20.05;17.23;;;;;;;;;;5037639;28;20467;-61
2023/09/10 08:37:23;;;;;;;22.15;17.13;;;;;;;;;;5031879;28;20034;-60
2023/09/10 08:39:49;;;;;;;24.05;18.60;;;;;;;;;;5032314;28;20032;-61
2023/09/10 08:42:45;;;;;;;22.48;18.25;;;;;;;;;;5032177;28;20538;-60
2023/09/10 08:45:11;;;;;;;19.67;16.98;;;;;;;;;;5032582;28;20056;-60
2023/09/10 08:47:39;;;;;;;20.42;16.65;;;;;;;;;;5035826;28;20035;-60
2023/09/10 08:50:14;;;;;;;23.58;16.67;;;;;;;;;;5052638;28;20036;-60
2023/09/10 08:52:43;;;;;;;20.02;15.93;;;;;;;;;;5051300;28;20481;-60
2023/09/10 08:55:11;;;;;;;19.48;14.95;;;;;;;;;;5052763;28;20036;-60
2023/09/10 08:57:38;;;;;;;17.33;13.38;;;;;;;;;;5051932;28;20036;-60
2023/09/10 09:00:10;;;;;;;18.77;14.85;;;;;;;;;;5051224;28;20029;-61
2023/09/10 09:02:36;;;;;;;17.38;14.80;;;;;;;;;;5050884;28;20102;-61
2023/09/10 09:05:02;;;;;;;20.25;15.80;;;;;;;;;;5051313;28;20037;-61
2023/09/10 09:07:31;;;;;;;14.60;12.60;;;;;;;;;;5049891;28;20036;-61
2023/09/10 09:10:00;;;;;;;14.23;12.45;;;;;;;;;;5051671;28;20028;-60
2023/09/10 09:12:27;;;;;;;16.63;12.43;;;;;;;;;;5051622;28;20432;-61
2023/09/10 09:14:54;;;;;;;15.23;12.05;;;;;;;;;;5051504;28;20306;-61
2023/09/10 09:17:20;;;;;;;15.40;12.85;;;;;;;;;;5051136;28;20052;-61
2023/09/10 09:19:48;;;;;;;13.45;11.93;;;;;;;;;;5052311;28;20077;-60
2023/09/10 09:22:17;;;;;;;14.98;12.63;;;;;;;;;;5051769;28;20388;-60
2023/09/10 09:24:43;;;;;;;14.90;11.68;;;;;;;;;;5051733;28;20088;-60
2023/09/10 09:27:10;;;;;;;14.75;11.05;;;;;;;;;;5052229;28;20389;-61
2023/09/10 09:29:36;;;;;;;11.35;9.07;;;;;;;;;;5049644;28;20041;-60
2023/09/10 09:32:02;;;;;;;14.82;9.82;;;;;;;;;;5051201;28;20044;-61
2023/09/10 09:34:27;;;;;;;12.88;9.93;;;;;;;;;;5049162;28;20040;-61
2023/09/10 09:36:53;;;;;;;9.05;8.05;;;;;;;;;;5051990;28;20029;-61
2023/09/10 09:39:20;;;;;;;11.20;8.00;;;;;;;;;;5051432;28;20377;-61
2023/09/10 09:41:53;;;;;;;10.27;8.18;;;;;;;;;;5051675;28;20507;-60
2023/09/10 09:44:19;;;;;;;14.27;8.20;;;;;;;;;;5049815;28;20115;-61
2023/09/10 09:46:48;;;;;;;10.55;7.13;;;;;;;;;;5051647;28;20032;-60
2023/09/10 09:49:13;;;;;;;10.20;6.47;;;;;;;;;;5051714;28;20029;-60
2023/09/10 09:51:40;;;;;;;9.18;7.32;;;;;;;;;;5049781;28;20031;-61
2023/09/10 09:54:07;;;;;;;9.15;5.50;;;;;;;;;;5051490;28;20470;-61
2023/09/10 09:56:32;;;;;;;11.15;6.78;;;;;;;;;;5048899;28;20040;-61
2023/09/10 09:59:02;;;;;;;10.48;6.90;;;;;;;;;;5051716;28;20029;-61
2023/09/10 10:01:27;;;;;;;11.53;6.40;;;;;;;;;;5050732;28;20117;-61
2023/09/10 10:03:52;;;;;;;9.30;6.40;;;;;;;;;;5051503;28;20104;-61
2023/09/10 10:06:18;;;;;;;10.88;5.90;;;;;;;;;;5051322;28;20143;-61
2023/09/10 10:08:50;;;;;;;14.85;5.80;;;;;;;;;;5049598;28;20040;-60
2023/09/10 10:11:27;;;;;;;15.25;5.57;;;;;;;;;;5051286;28;20037;-61
2023/09/10 10:13:52;;;;;;;15.50;5.88;;;;;;;;;;5051616;28;20087;-61
2023/09/10 10:16:18;;;;;;;13.93;5.20;;;;;;;;;;5051539;28;20048;-59
2023/09/10 10:18:43;;;;;;;15.20;5.68;;;;;;;;;;5050682;28;20029;-60
2023/09/10 10:21:10;;;;;;;18.60;5.72;;;;;;;;;;5049473;28;20029;-60
2023/09/10 10:23:36;;;;;;;14.23;5.22;;;;;;;;;;5050487;28;20025;-60
2023/09/10 10:26:05;;;;;;;18.00;5.85;;;;;;;;;;5051516;28;20025;-60
2023/09/10 10:28:31;;;;;;;18.90;6.47;;;;;;;;;;5050586;28;20119;-59
2023/09/10 10:31:16;;;;;;;17.38;6.18;;;;;;;;;;5051347;28;20037;-60
2023/09/10 10:33:58;;;;;;;19.85;6.57;;;;;;;;;;5050827;28;20707;-60
2023/09/10 10:36:29;;;;;;;17.80;6.40;;;;;;;;;;5049850;28;20187;-60
2023/09/10 10:38:55;;;;;;;25.10;6.13;;;;;;;;;;5048765;28;20060;-61
2023/09/10 10:41:25;;;;;;;32.92;5.95;;;;;;;;;;5051791;28;20091;-60
2023/09/10 10:44:11;;;;;;;18.95;6.40;;;;;;;;;;5055414;28;20056;-60
2023/09/10 10:46:38;;;;;;;23.77;6.47;;;;;;;;;;5053689;28;20037;-60
2023/09/10 10:49:07;;;;;;;17.40;6.10;;;;;;;;;;5054651;28;20080;-60
2023/09/10 10:51:37;;;;;;;14.38;5.65;;;;;;;;;;5053225;28;20101;-59
2023/09/10 10:54:03;;;;;;;18.05;6.35;;;;;;;;;;5054868;28;20029;-59
2023/09/10 10:56:29;;;;;;;29.92;6.07;;;;;;;;;;5054332;28;20043;-59
2023/09/10 10:58:55;;;;;;;18.98;5.85;;;;;;;;;;5054972;28;20021;-60
2023/09/10 11:01:20;;;;;;;14.45;6.15;;;;;;;;;;5054728;28;20029;-60
2023/09/10 11:03:47;;;;;;;19.80;5.90;;;;;;;;;;5054119;28;20033;-60
2023/09/10 11:06:13;;;;;;;18.52;5.75;;;;;;;;;;5052779;28;20040;-60
2023/09/10 11:08:48;;;;;;;18.67;6.63;;;;;;;;;;5053791;28;20029;-60
2023/09/10 11:11:38;;;;;;;12.73;6.05;;;;;;;;;;5054307;28;20032;-60
2023/09/10 11:14:06;;;;;;;13.27;6.05;;;;;;;;;;5054717;28;20059;-60
2023/09/10 11:16:32;;;;;;;20.48;6.70;;;;;;;;;;5053266;28;20461;-60
2023/09/10 11:19:03;;;;;;;14.98;6.25;;;;;;;;;;5052533;28;20105;-60
2023/09/10 11:21:56;;;;;;;16.90;6.43;;;;;;;;;;5053101;28;20033;-60
2023/09/10 11:24:22;;;;;;;16.45;6.35;;;;;;;;;;5053063;28;20607;-60
2023/09/10 11:26:48;;;;;;;13.23;6.50;;;;;;;;;;5053585;28;20111;-59
2023/09/10 11:29:18;;;;;;;12.20;5.85;;;;;;;;;;5054416;28;20458;-60
2023/09/10 11:31:46;;;;;;;14.43;6.22;;;;;;;;;;5052004;28;20166;-60
2023/09/10 11:34:34;;;;;;;13.25;6.28;;;;;;;;;;5051810;28;20060;-60
2023/09/10 11:37:07;;;;;;;16.10;6.93;;;;;;;;;;5047233;28;20036;-61
2023/09/10 11:39:34;;;;;;;14.80;6.90;;;;;;;;;;5053304;28;20037;-60
2023/09/10 11:42:02;;;;;;;13.82;6.18;;;;;;;;;;5053921;28;20484;-60
2023/09/10 11:44:28;;;;;;;22.65;6.57;;;;;;;;;;5053410;28;20485;-61
2023/09/10 11:46:54;;;;;;;18.77;6.28;;;;;;;;;;5054023;28;20462;-61
2023/09/10 11:49:22;;;;;;;16.95;6.55;;;;;;;;;;5052598;28;20037;-60
2023/09/10 11:51:52;;;;;;;17.05;6.63;;;;;;;;;;5049353;28;20119;-61
2023/09/10 11:54:19;;;;;;;18.00;6.50;;;;;;;;;;5054153;28;20506;-61
2023/09/10 11:56:50;;;;;;;13.05;6.78;;;;;;;;;;5053095;28;20063;-61
2023/09/10 11:59:17;;;;;;;12.70;6.30;;;;;;;;;;5052894;28;20060;-61
2023/09/10 12:01:43;;;;;;;13.95;6.88;;;;;;;;;;5052800;28;20039;-59
2023/09/10 12:04:08;;;;;;;13.15;6.32;;;;;;;;;;5051003;28;20107;-61
2023/09/10 12:06:34;;;;;;;14.05;6.30;;;;;;;;;;5044361;28;20037;-60
2023/09/10 12:08:59;;;;;;;15.95;6.70;;;;;;;;;;5032456;28;20544;-61
2023/09/10 12:11:26;;;;;;;11.57;6.47;;;;;;;;;;5032401;28;20421;-61
2023/09/10 12:13:55;;;;;;;13.73;7.00;;;;;;;;;;5033150;28;20359;-61
2023/09/10 12:16:21;;;;;;;17.55;6.97;;;;;;;;;;5031919;28;20524;-61
2023/09/10 12:18:47;;;;;;;13.52;6.35;;;;;;;;;;5044481;28;20112;-61
2023/09/10 12:21:15;;;;;;;13.63;7.40;;;;;;;;;;5050265;28;20070;-61
2023/09/10 12:23:43;;;;;;;15.40;6.60;;;;;;;;;;5051052;28;20037;-61
2023/09/10 12:26:09;;;;;;;19.35;6.85;;;;;;;;;;5052115;28;20029;-61
2023/09/10 12:28:35;;;;;;;12.38;6.80;;;;;;;;;;5052463;28;20025;-61
2023/09/10 12:31:02;;;;;;;18.08;7.10;;;;;;;;;;5053236;28;20051;-61
2023/09/10 12:33:28;;;;;;;17.88;7.03;;;;;;;;;;5052046;28;20037;-61
2023/09/10 12:35:54;;;;;;;17.13;6.68;;;;;;;;;;5049590;28;20029;-61
2023/09/10 12:38:20;;;;;;;12.82;7.30;;;;;;;;;;5052519;28;20035;-61
2023/09/10 12:40:48;;;;;;;17.25;7.25;;;;;;;;;;5051918;28;20033;-61
2023/09/10 12:43:19;;;;;;;15.80;6.88;;;;;;;;;;5051554;28;20123;-61
2023/09/10 12:45:45;;;;;;;20.88;7.22;;;;;;;;;;5051449;28;20053;-61
2023/09/10 12:48:11;;;;;;;14.88;7.00;;;;;;;;;;5052968;28;20029;-60
2023/09/10 12:50:36;;;;;;;18.95;7.28;;;;;;;;;;5050739;28;20071;-61
2023/09/10 12:53:03;;;;;;;15.90;7.55;;;;;;;;;;5034582;28;20029;-61
2023/09/10 12:55:29;;;;;;;12.35;7.03;;;;;;;;;;5052535;28;20048;-60
2023/09/10 12:57:55;;;;;;;15.68;7.28;;;;;;;;;;5052094;28;20032;-61
2023/09/10 13:00:21;;;;;;;15.20;6.97;;;;;;;;;;5049129;28;20035;-61
2023/09/10 13:02:47;;;;;;;16.08;7.78;;;;;;;;;;5051213;28;20029;-61
2023/09/10 13:05:15;;;;;;;15.65;7.07;;;;;;;;;;5052212;28;20085;-61
2023/09/10 13:07:41;;;;;;;17.63;7.60;;;;;;;;;;5051760;28;20033;-61
2023/09/10 13:10:08;;;;;;;18.92;8.15;;;;;;;;;;5052695;28;20098;-61
2023/09/10 13:12:34;;;;;;;17.17;8.15;;;;;;;;;;5051290;28;20044;-61
2023/09/10 13:14:59;;;;;;;12.35;7.40;;;;;;;;;;5049911;28;20382;-60
2023/09/10 13:17:25;;;;;;;16.13;7.28;;;;;;;;;;5052323;28;20102;-61
2023/09/10 13:19:50;;;;;;;18.48;7.30;;;;;;;;;;5035648;28;20033;-61
2023/09/10 13:22:15;;;;;;;18.48;7.50;;;;;;;;;;5031941;28;20041;-61
2023/09/10 13:24:41;;;;;;;18.85;7.70;;;;;;;;;;5034471;28;20033;-61
2023/09/10 13:27:06;;;;;;;17.33;8.15;;;;;;;;;;5052194;28;20037;-61
2023/09/10 13:29:32;;;;;;;16.17;7.90;;;;;;;;;;5051934;28;20033;-61
2023/09/10 13:31:57;;;;;;;19.45;7.45;;;;;;;;;;5051792;28;20033;-61
2023/09/10 13:34:22;;;;;;;15.10;7.80;;;;;;;;;;5050747;28;20079;-62
2023/09/10 13:36:48;;;;;;;20.58;8.20;;;;;;;;;;5048575;28;20100;-61
2023/09/10 13:39:13;;;;;;;14.02;7.70;;;;;;;;;;5051797;28;20485;-62
2023/09/10 13:41:39;;;;;;;18.75;8.32;;;;;;;;;;5037036;28;20733;-60
2023/09/10 13:44:05;;;;;;;17.00;7.70;;;;;;;;;;5043165;28;20497;-59
2023/09/10 13:46:30;;;;;;;15.60;7.68;;;;;;;;;;5043594;28;20045;-60
2023/09/10 13:48:56;;;;;;;17.90;8.20;;;;;;;;;;5050270;28;20025;-62
2023/09/10 13:51:21;;;;;;;14.40;8.10;;;;;;;;;;5051317;28;20033;-59
2023/09/10 13:53:48;;;;;;;18.67;8.18;;;;;;;;;;5050562;28;20025;-62
2023/09/10 13:56:14;;;;;;;14.27;7.68;;;;;;;;;;5051542;28;20032;-60
2023/09/10 13:58:39;;;;;;;13.75;8.00;;;;;;;;;;5048265;28;20029;-60
2023/09/10 14:01:07;;;;;;;17.42;8.18;;;;;;;;;;5051594;28;20068;-61
2023/09/10 14:03:36;;;;;;;13.95;8.32;;;;;;;;;;5051155;28;20040;-60
2023/09/10 14:06:03;;;;;;;15.45;8.30;;;;;;;;;;5051692;28;20033;-60
2023/09/10 14:08:28;;;;;;;17.13;8.32;;;;;;;;;;5049006;28;20367;-61
2023/09/10 14:10:54;;;;;;;19.50;8.75;;;;;;;;;;5043898;28;20036;-61
2023/09/10 14:13:19;;;;;;;15.57;8.38;;;;;;;;;;5050500;28;20033;-66
2023/09/10 14:15:45;;;;;;;16.25;8.85;;;;;;;;;;5050998;28;20095;-66
2023/09/10 14:18:11;;;;;;;19.75;8.48;;;;;;;;;;5055836;28;20035;-71
2023/09/10 14:20:36;;;;;;;15.68;8.68;;;;;;;;;;5053658;28;20029;-61